Time;durP1;ratioP1;P1;durP2;ratioP2;P2;SDS_P1;SDS_P2;PMS_P1;PMS_P2;Temp;Humidity;BMP_temperature;BMP_pressure;BME280_temperature;BME280_humidity;BME280_pressure;Samples;Min_cycle;Max_cycle;Signal;HPM_P1;HPM_P2
2021/12/22 00:00:10;;;;;;;19.07;9.97;;;;;;;-8.76;68.56;100571.63;1771642;80;21026;-63
2021/12/22 00:02:46;;;;;;;13.20;8.57;;;;;;;-8.77;68.56;100572.55;1755389;80;20983;-63
2021/12/22 00:05:07;;;;;;;10.03;7.20;;;;;;;-8.81;68.58;100578.28;1772249;80;21006;-63
2021/12/22 00:07:35;;;;;;;12.37;8.07;;;;;;;-8.82;68.90;100579.16;1769627;80;21016;-63
2021/12/22 00:10:01;;;;;;;10.80;7.67;;;;;;;-8.79;68.95;100577.39;1767460;80;21064;-63
2021/12/22 00:12:28;;;;;;;14.53;7.17;;;;;;;-8.76;69.01;100581.12;1771671;80;21021;-62
2021/12/22 00:14:54;;;;;;;8.70;6.08;;;;;;;-8.70;69.01;100585.63;1766796;80;21025;-62
2021/12/22 00:17:21;;;;;;;10.77;6.57;;;;;;;-8.66;68.97;100586.34;1771831;80;20997;-61
2021/12/22 00:19:48;;;;;;;12.90;5.40;;;;;;;-8.62;68.89;100581.45;1773497;80;20974;-64
2021/12/22 00:22:14;;;;;;;12.13;5.70;;;;;;;-8.60;68.91;100575.77;1768299;80;21037;-62
2021/12/22 00:24:41;;;;;;;9.68;5.95;;;;;;;-8.57;68.81;100576.91;1770730;80;21555;-63
2021/12/22 00:27:08;;;;;;;10.67;6.13;;;;;;;-8.58;68.86;100581.71;1760959;80;21005;-64
2021/12/22 00:29:34;;;;;;;8.40;5.63;;;;;;;-8.56;69.01;100581.20;1770931;80;21081;-62
2021/12/22 00:32:11;;;;;;;11.03;5.50;;;;;;;-8.53;69.23;100582.38;1766250;80;21049;-63
2021/12/22 00:34:47;;;;;;;10.10;5.22;;;;;;;-8.48;69.17;100593.81;1747626;80;21565;-64
2021/12/22 00:37:08;;;;;;;8.57;5.13;;;;;;;-8.48;69.63;100592.06;1735611;81;21653;-63
2021/12/22 00:39:34;;;;;;;7.75;5.55;;;;;;;-8.50;69.40;100586.11;1734791;81;21517;-62
2021/12/22 00:42:02;;;;;;;8.33;5.40;;;;;;;-8.55;69.49;100592.37;1707036;83;21486;-63
2021/12/22 00:44:28;;;;;;;8.20;5.08;;;;;;;-8.53;69.64;100585.39;1669711;84;21075;-62
2021/12/22 00:46:54;;;;;;;8.13;5.55;;;;;;;-8.50;69.39;100592.58;1670708;84;21058;-62
2021/12/22 00:49:20;;;;;;;8.25;5.35;;;;;;;-8.52;69.58;100595.67;1704859;83;21118;-63
2021/12/22 00:51:46;;;;;;;8.08;5.75;;;;;;;-8.52;69.57;100602.14;1669680;84;21951;-63
2021/12/22 00:54:12;;;;;;;5.72;4.37;;;;;;;-8.55;69.59;100607.45;1702155;83;21090;-63
2021/12/22 00:56:38;;;;;;;6.37;5.15;;;;;;;-8.59;69.95;100607.61;1686142;83;21569;-62
2021/12/22 00:59:05;;;;;;;8.78;4.60;;;;;;;-8.60;69.88;100605.48;1692835;83;21031;-62
2021/12/22 01:01:31;;;;;;;7.77;4.20;;;;;;;-8.60;69.96;100609.36;1691068;83;20995;-64
2021/12/22 01:03:58;;;;;;;7.97;4.65;;;;;;;-8.60;70.11;100612.41;1683938;84;20998;-63
2021/12/22 01:06:24;;;;;;;9.50;4.93;;;;;;;-8.66;69.95;100607.02;1674485;84;21058;-65
2021/12/22 01:08:51;;;;;;;7.45;4.85;;;;;;;-8.72;70.15;100610.69;1678818;84;21096;-63
2021/12/22 01:11:17;;;;;;;5.62;4.22;;;;;;;-8.73;70.35;100610.73;1683792;82;21070;-63
2021/12/22 01:13:43;;;;;;;7.35;6.08;;;;;;;-8.77;70.51;100610.47;1737124;81;21088;-63
2021/12/22 01:16:10;;;;;;;11.20;6.15;;;;;;;-8.79;70.53;100610.98;1724507;81;21113;-62
2021/12/22 01:18:37;;;;;;;8.63;5.70;;;;;;;-8.78;70.57;100612.19;1722928;82;21031;-62
2021/12/22 01:23:35;;;;;;;7.03;4.43;;;;;;;-8.77;70.44;100610.47;1683974;82;21023;-63
2021/12/22 01:25:58;;;;;;;7.77;5.20;;;;;;;-8.74;70.49;100610.33;1661651;85;21146;-63
2021/12/22 01:28:26;;;;;;;8.38;4.65;;;;;;;-8.71;70.32;100607.19;1664131;85;21038;-63
2021/12/22 01:30:55;;;;;;;6.47;4.67;;;;;;;-8.66;70.24;100616.06;1653297;85;21021;-63
2021/12/22 01:33:21;;;;;;;7.77;4.77;;;;;;;-8.66;69.90;100609.15;1664306;84;21134;-64
2021/12/22 01:35:47;;;;;;;8.03;4.58;;;;;;;-8.65;69.88;100616.44;1722187;82;21007;-64
2021/12/22 01:38:14;;;;;;;7.62;4.78;;;;;;;-8.71;69.80;100618.81;1726552;82;21018;-62
2021/12/22 01:40:45;;;;;;;5.93;4.47;;;;;;;-8.77;69.88;100622.93;1725033;82;21120;-64
2021/12/22 01:43:14;;;;;;;6.37;4.03;;;;;;;-8.82;70.04;100631.30;1725136;82;21490;-62
2021/12/22 01:51:07;;;;;;;6.67;4.47;;;;;;;-8.81;70.12;100634.28;1651911;86;21012;-63
2021/12/22 01:53:46;;;;;;;7.67;4.23;;;;;;;-8.81;70.20;100644.63;1665292;85;21102;-62
2021/12/22 01:56:25;;;;;;;6.90;5.40;;;;;;;-8.82;69.92;100645.50;1644129;85;21091;-62
2021/12/22 01:58:56;;;;;;;8.37;5.53;;;;;;;-8.85;70.08;100650.81;1672988;84;21041;-62
2021/12/22 02:01:24;;;;;;;8.33;4.90;;;;;;;-8.87;70.11;100640.95;1679599;83;21470;-60
2021/12/22 02:03:53;;;;;;;8.10;4.83;;;;;;;-8.89;69.94;100646.20;1670466;84;21034;-64
2021/12/22 02:06:21;;;;;;;11.33;5.07;;;;;;;-8.92;69.72;100649.34;1672854;84;22164;-63
2021/12/22 02:08:47;;;;;;;7.27;5.37;;;;;;;-8.94;69.57;100651.14;1669882;84;21831;-62
2021/12/22 02:11:17;;;;;;;10.68;6.10;;;;;;;-8.98;69.65;100649.55;1673940;83;21085;-62
2021/12/22 02:13:46;;;;;;;10.27;5.80;;;;;;;-8.99;69.53;100650.00;1691152;82;21072;-62
2021/12/22 02:16:15;;;;;;;8.17;5.43;;;;;;;-8.98;69.43;100654.72;1699404;83;21164;-63
2021/12/22 02:18:51;;;;;;;5.20;4.23;;;;;;;-8.94;69.39;100652.44;1701022;83;21525;-61
2021/12/22 02:21:19;;;;;;;9.97;6.13;;;;;;;-8.94;69.16;100651.98;1717890;82;21025;-62
2021/12/22 02:23:45;;;;;;;8.37;5.63;;;;;;;-8.90;69.06;100648.38;1701031;82;21040;-63
2021/12/22 02:26:21;;;;;;;7.70;4.33;;;;;;;-8.87;68.97;100653.87;1697825;82;21103;-63
2021/12/22 02:28:48;;;;;;;7.90;4.77;;;;;;;-8.85;68.64;100650.35;1694294;82;21116;-67
2021/12/22 02:31:17;;;;;;;8.33;4.57;;;;;;;-9.13;68.50;100601.45;1694837;82;21595;-64
2021/12/22 02:33:46;;;;;;;8.97;4.43;;;;;;;-8.85;68.59;100652.10;1706620;82;21109;-63
2021/12/22 02:38:54;;;;;;;8.10;4.77;;;;;;;-8.91;68.67;100646.71;1717552;82;21581;-65
2021/12/22 02:41:26;;;;;;;7.70;4.40;;;;;;;-8.90;68.56;100650.96;1641225;85;21089;-62
2021/12/22 02:43:55;;;;;;;7.93;5.10;;;;;;;-8.89;68.59;100652.66;1708985;82;21067;-62
2021/12/22 02:46:30;;;;;;;6.50;4.70;;;;;;;-8.89;68.52;100656.53;1679842;83;21062;-62
2021/12/22 02:48:58;;;;;;;5.93;3.83;;;;;;;-8.85;68.72;100655.52;1681418;84;21001;-63
2021/12/22 02:51:28;;;;;;;4.40;3.97;;;;;;;-8.83;68.84;100654.17;1648198;86;21198;-63
2021/12/22 02:56:54;;;;;;;6.33;4.13;;;;;;;-8.77;69.16;100653.11;1653439;84;21148;-63
2021/12/22 02:59:32;;;;;;;5.43;4.10;;;;;;;-8.74;69.30;100655.55;1666532;84;21550;-62
2021/12/22 03:04:27;;;;;;;9.43;5.53;;;;;;;-8.67;69.49;100662.18;1693415;84;21686;-63
2021/12/22 03:06:54;;;;;;;8.90;5.90;;;;;;;-8.57;69.26;100661.38;1682029;84;21047;-62
2021/12/22 03:09:20;;;;;;;7.47;5.07;;;;;;;-8.52;69.14;100668.52;1675843;84;21570;-63
2021/12/22 03:11:48;;;;;;;9.50;6.07;;;;;;;-8.48;68.92;100671.37;1658740;84;21010;-64
2021/12/22 03:14:15;;;;;;;12.13;6.23;;;;;;;-8.45;68.67;100668.22;1669617;84;21061;-65
2021/12/22 03:16:45;;;;;;;8.50;5.57;;;;;;;-8.46;68.27;100671.69;1669001;84;21081;-61
2021/12/22 03:19:15;;;;;;;8.43;5.97;;;;;;;-8.41;68.34;100677.97;1674978;84;21621;-64
2021/12/22 03:21:44;;;;;;;7.67;5.13;;;;;;;-8.42;68.17;100669.83;1658480;84;21580;-63
2021/12/22 03:24:13;;;;;;;8.13;5.30;;;;;;;-8.46;68.13;100672.15;1693237;82;21518;-62
2021/12/22 03:26:44;;;;;;;9.17;5.77;;;;;;;-8.51;68.22;100674.06;1626923;86;21027;-62
2021/12/22 03:29:15;;;;;;;8.63;5.10;;;;;;;-8.53;68.23;100674.14;1628107;86;21037;-62
2021/12/22 03:31:44;;;;;;;8.87;4.87;;;;;;;-8.55;67.87;100675.08;1629345;85;21054;-62
2021/12/22 03:34:13;;;;;;;6.80;4.73;;;;;;;-8.57;67.87;100681.59;1688074;83;21042;-63
2021/12/22 03:36:42;;;;;;;10.53;4.87;;;;;;;-8.62;67.55;100687.41;1689706;83;21136;-63
2021/12/22 03:39:11;;;;;;;8.13;5.27;;;;;;;-8.66;67.30;100694.89;1696327;83;21026;-62
2021/12/22 03:41:39;;;;;;;7.30;4.93;;;;;;;-8.70;67.15;100689.42;1695850;83;21101;-62
2021/12/22 03:44:07;;;;;;;6.97;4.50;;;;;;;-8.82;66.82;100692.84;1673389;83;21154;-62
2021/12/22 03:46:34;;;;;;;8.00;4.17;;;;;;;-8.98;67.06;100704.66;1682031;83;21113;-62
2021/12/22 03:49:03;;;;;;;5.50;4.40;;;;;;;-9.06;67.21;100709.23;1685291;83;21585;-63
2021/12/22 03:51:29;;;;;;;7.87;4.97;;;;;;;-9.08;67.29;100717.48;1689999;84;21153;-62
2021/12/22 03:53:56;;;;;;;6.35;3.58;;;;;;;-9.12;67.15;100716.75;1647867;85;21013;-62
2021/12/22 03:56:22;;;;;;;;;;;;;;;-9.13;67.28;100709.08;1650484;84;21009;-62
2021/12/22 03:58:48;;;;;;;7.27;4.27;;;;;;;-9.14;66.81;100715.13;1676087;84;20186;-64
2021/12/22 04:01:15;;;;;;;6.83;3.77;;;;;;;-9.21;66.61;100716.64;1676852;84;21092;-64
2021/12/22 04:03:44;;;;;;;6.47;4.00;;;;;;;-9.23;66.28;100720.15;1670226;85;21560;-62
2021/12/22 04:06:10;;;;;;;4.90;3.27;;;;;;;-9.27;66.42;100718.58;1671185;84;21149;-62
2021/12/22 04:08:36;;;;;;;6.83;4.10;;;;;;;-9.33;66.71;100719.63;1665426;84;21050;-63
2021/12/22 04:11:04;;;;;;;5.47;3.73;;;;;;;-9.40;66.62;100722.02;1659766;84;21046;-64
2021/12/22 04:13:30;;;;;;;5.97;3.17;;;;;;;-9.43;66.73;100721.69;1659036;85;21438;-64
2021/12/22 04:15:58;;;;;;;9.93;4.60;;;;;;;-9.48;66.67;100722.73;1659012;85;21050;-62
2021/12/22 04:18:25;;;;;;;6.95;4.87;;;;;;;-9.51;66.55;100718.53;1659646;86;21588;-65
2021/12/22 04:20:51;;;;;;;7.42;4.35;;;;;;;-9.53;66.95;100722.90;1643964;87;21756;-64
2021/12/22 04:23:17;;;;;;;4.83;2.95;;;;;;;-9.48;66.98;100725.31;1655849;84;21282;-62
2021/12/22 04:25:43;;;;;;;;;;;;;;;-9.44;66.58;100729.47;1679146;84;21054;-62
2021/12/22 04:28:10;;;;;;;8.30;5.80;;;;;;;-9.48;66.60;100730.02;1666680;84;20114;-63
2021/12/22 04:30:47;;;;;;;7.97;5.23;;;;;;;-9.51;66.69;100728.84;1658060;84;21046;-64
2021/12/22 04:33:14;;;;;;;6.97;4.83;;;;;;;-9.49;66.41;100731.35;1691161;83;21397;-63
2021/12/22 04:35:42;;;;;;;7.93;5.00;;;;;;;-9.50;66.41;100737.43;1683083;85;21086;-64
2021/12/22 04:38:08;;;;;;;7.67;5.00;;;;;;;-9.55;66.35;100736.27;1685700;83;20944;-68
2021/12/22 04:40:35;;;;;;;5.60;4.08;;;;;;;-9.57;66.46;100743.68;1690095;84;21089;-63
2021/12/22 04:43:02;;;;;;;5.33;4.07;;;;;;;-9.52;66.65;100748.25;1688647;83;21026;-63
2021/12/22 04:45:28;;;;;;;5.57;4.37;;;;;;;-9.46;66.73;100745.00;1694792;83;21045;-63
2021/12/22 04:47:57;;;;;;;5.90;4.10;;;;;;;-9.40;66.49;100749.13;1675839;84;21058;-65
2021/12/22 04:50:24;;;;;;;5.92;3.65;;;;;;;-9.36;66.33;100761.06;1674446;84;21575;-63
2021/12/22 04:53:08;;;;;;;4.77;3.90;;;;;;;-9.34;66.24;100761.84;1668331;84;21074;-64
2021/12/22 04:55:29;;;;;;;3.03;2.73;;;;;;;-9.35;66.13;100771.77;1664274;84;21042;-61
2021/12/22 04:57:57;;;;;;;4.57;3.20;;;;;;;-9.38;65.89;100771.85;1690566;84;20967;-64
2021/12/22 05:00:27;;;;;;;6.47;3.70;;;;;;;-9.39;65.91;100774.05;1692422;83;21216;-66
2021/12/22 05:02:55;;;;;;;6.50;3.40;;;;;;;-9.37;65.79;100772.72;1694749;84;20994;-64
2021/12/22 05:05:21;;;;;;;4.87;3.60;;;;;;;-9.38;65.70;100771.02;1693791;83;21101;-61
2021/12/22 05:07:47;;;;;;;9.80;3.77;;;;;;;-9.41;66.10;100768.94;1698731;83;20999;-62
2021/12/22 05:10:16;;;;;;;5.78;4.03;;;;;;;-9.43;66.11;100767.31;1694680;83;21069;-65
2021/12/22 05:12:44;;;;;;;4.87;3.27;;;;;;;-9.46;66.16;100775.98;1704529;83;20959;-62
2021/12/22 05:15:13;;;;;;;8.70;3.53;;;;;;;-9.46;66.30;100781.14;1709624;83;20999;-63
2021/12/22 05:20:12;;;;;;;7.90;5.03;;;;;;;-9.46;66.48;100785.47;1704672;83;21054;-62
2021/12/22 05:22:40;;;;;;;5.17;3.70;;;;;;;-9.42;66.42;100789.63;1704630;82;21130;-62
2021/12/22 05:25:09;;;;;;;3.87;3.23;;;;;;;-9.37;66.65;100790.34;1691269;83;21037;-61
2021/12/22 05:27:36;;;;;;;8.13;3.40;;;;;;;-9.32;66.70;100789.74;1685590;83;21047;-62
2021/12/22 05:30:06;;;;;;;5.47;3.37;;;;;;;-9.29;66.16;100798.66;1696851;83;21191;-63
2021/12/22 05:32:36;;;;;;;6.07;3.97;;;;;;;-9.29;66.14;100803.83;1698424;83;21022;-62
2021/12/22 05:35:07;;;;;;;4.63;3.83;;;;;;;-9.27;66.13;100797.33;1692796;83;21065;-64
2021/12/22 05:37:35;;;;;;;7.37;4.57;;;;;;;-9.27;66.23;100796.03;1687999;83;21611;-63
2021/12/22 05:40:01;;;;;;;5.90;4.20;;;;;;;-9.24;65.80;100799.36;1690141;84;20990;-61
2021/12/22 05:42:28;;;;;;;6.03;4.70;;;;;;;-9.21;65.41;100800.56;1688763;83;21037;-68
2021/12/22 05:44:55;;;;;;;4.87;2.90;;;;;;;-9.20;65.39;100803.52;1670711;84;21076;-66
2021/12/22 05:47:21;;;;;;;8.97;4.33;;;;;;;-9.19;65.43;100810.84;1697077;84;21550;-65
2021/12/22 05:49:49;;;;;;;4.65;3.40;;;;;;;-9.19;65.35;100808.27;1684527;84;21001;-67
2021/12/22 05:52:16;;;;;;;3.90;3.50;;;;;;;-9.18;64.84;100816.84;1696876;82;21495;-67
2021/12/22 05:54:43;;;;;;;5.83;3.63;;;;;;;-9.22;65.01;100816.10;1659545;85;21114;-68
2021/12/22 05:57:09;;;;;;;9.38;4.35;;;;;;;-9.28;65.31;100817.59;1686870;84;21003;-66
2021/12/22 05:59:35;;;;;;;6.70;3.98;;;;;;;-9.30;65.17;100816.81;1680399;84;21033;-68
2021/12/22 06:02:02;;;;;;;6.92;4.03;;;;;;;-9.27;65.17;100836.05;1708411;84;21002;-66
2021/12/22 06:04:28;;;;;;;7.90;4.30;;;;;;;-9.27;65.29;100834.77;1688516;84;21510;-68
2021/12/22 06:06:54;;;;;;;7.28;3.47;;;;;;;-9.26;65.35;100836.47;1665825;84;21077;-68
2021/12/22 06:09:21;;;;;;;7.45;4.60;;;;;;;-9.29;65.50;100837.39;1676383;84;21134;-68
2021/12/22 06:11:48;;;;;;;6.17;4.43;;;;;;;-9.32;65.37;100844.39;1672807;84;21086;-68
2021/12/22 06:14:15;;;;;;;7.47;4.70;;;;;;;-9.35;65.54;100847.92;1687376;84;21031;-69
2021/12/22 06:16:41;;;;;;;8.95;4.50;;;;;;;-9.33;65.39;100851.30;1683537;83;21089;-67
2021/12/22 06:19:09;;;;;;;6.78;4.25;;;;;;;-9.30;65.10;100856.38;1676781;83;21105;-68
2021/12/22 06:21:36;;;;;;;5.63;3.90;;;;;;;-9.32;65.04;100861.16;1680709;83;21061;-67
2021/12/22 06:24:03;;;;;;;5.83;4.40;;;;;;;-9.35;65.11;100859.53;1684402;82;21011;-68
2021/12/22 06:26:29;;;;;;;7.40;3.90;;;;;;;-9.37;65.10;100860.03;1686830;83;21093;-68
2021/12/22 06:28:56;;;;;;;10.53;5.40;;;;;;;-9.33;64.98;100866.78;1695041;84;21129;-66
2021/12/22 06:31:22;;;;;;;6.37;4.55;;;;;;;-9.28;64.85;100872.66;1683826;83;21010;-68
2021/12/22 06:33:49;;;;;;;;;;;;;;;-9.24;64.94;100873.41;1698408;84;21058;-67
2021/12/22 06:36:17;;;;;;;7.00;4.70;;;;;;;-9.25;64.84;100868.70;1694769;83;20105;-67
2021/12/22 06:38:44;;;;;;;6.73;4.30;;;;;;;-9.26;64.78;100876.03;1686897;84;21058;-68
2021/12/22 06:41:10;;;;;;;;;;;;;;;-9.24;65.07;100881.98;1697895;83;21101;-67
2021/12/22 06:43:36;;;;;;;5.77;4.20;;;;;;;-9.23;64.22;100882.40;1681113;84;20195;-68
2021/12/22 06:46:02;;;;;;;7.17;5.05;;;;;;;-9.28;64.57;100889.44;1682457;84;21053;-67
2021/12/22 06:48:29;;;;;;;7.50;4.90;;;;;;;-9.25;64.74;100889.35;1683938;83;21042;-68
2021/12/22 06:50:55;;;;;;;4.25;3.65;;;;;;;-9.19;64.82;100889.61;1694830;83;21466;-67
2021/12/22 06:53:21;;;;;;;6.92;3.80;;;;;;;-9.15;64.63;100896.78;1681148;83;21093;-68
2021/12/22 06:55:47;;;;;;;5.58;3.30;;;;;;;-9.11;64.68;100900.52;1694172;82;21066;-67
2021/12/22 06:58:13;;;;;;;7.58;4.53;;;;;;;-9.08;64.62;100893.11;1715197;82;21531;-66
2021/12/22 07:00:39;;;;;;;3.33;2.92;;;;;;;-9.05;64.29;100899.02;1721356;82;21018;-66
2021/12/22 07:03:05;;;;;;;4.17;3.20;;;;;;;-9.02;64.33;100904.56;1720843;82;21046;-65
2021/12/22 07:05:32;;;;;;;4.15;2.92;;;;;;;-8.99;64.04;100894.56;1726183;82;21039;-66
2021/12/22 07:07:58;;;;;;;6.25;3.85;;;;;;;-8.94;64.18;100894.81;1728328;82;21002;-67
2021/12/22 07:10:24;;;;;;;4.35;3.27;;;;;;;-8.89;64.19;100890.34;1713487;82;21176;-69
2021/12/22 07:12:52;;;;;;;5.87;3.70;;;;;;;-8.81;63.91;100897.38;1693076;83;21492;-66
2021/12/22 07:15:19;;;;;;;6.03;4.12;;;;;;;-8.77;63.55;100899.42;1682460;83;21511;-68
2021/12/22 07:17:49;;;;;;;6.77;4.43;;;;;;;-8.76;63.55;100892.50;1686887;83;21108;-66
2021/12/22 07:20:16;;;;;;;4.43;3.07;;;;;;;-8.71;63.58;100894.49;1693507;83;21067;-66
2021/12/22 07:22:42;;;;;;;10.63;5.15;;;;;;;-8.70;63.15;100902.63;1674724;84;21163;-68
2021/12/22 07:25:12;;;;;;;4.72;3.83;;;;;;;-8.71;63.20;100905.67;1719435;82;21423;-65
2021/12/22 07:27:39;;;;;;;4.93;3.33;;;;;;;-8.72;63.44;100903.12;1718058;82;21002;-68
2021/12/22 07:30:07;;;;;;;4.85;3.05;;;;;;;-8.64;63.35;100901.15;1722626;82;21137;-69
2021/12/22 07:32:33;;;;;;;4.43;3.50;;;;;;;-8.62;62.57;100906.66;1709011;82;21017;-69
2021/12/22 07:35:31;;;;;;;4.80;3.33;;;;;;;-8.58;63.00;100909.14;1723057;82;21569;-68
2021/12/22 07:38:11;;;;;;;4.73;2.77;;;;;;;-8.50;63.05;100900.21;1720481;82;21602;-66
2021/12/22 07:40:38;;;;;;;4.37;2.57;;;;;;;-8.40;62.38;100917.50;1710679;82;21482;-67
2021/12/22 07:43:05;;;;;;;4.90;2.65;;;;;;;-8.41;62.25;100908.91;1725292;82;21065;-65
2021/12/22 07:45:31;;;;;;;3.40;2.87;;;;;;;-8.41;61.94;100911.50;1712570;82;21006;-67
2021/12/22 07:47:57;;;;;;;4.62;4.20;;;;;;;-8.36;62.16;100914.36;1687117;83;21325;-66
2021/12/22 07:50:23;;;;;;;10.50;6.22;;;;;;;-8.29;62.03;100918.44;1689310;83;21096;-65
2021/12/22 07:52:49;;;;;;;6.05;3.17;;;;;;;-8.31;61.50;100909.43;1696939;83;21064;-65
2021/12/22 07:55:15;;;;;;;3.12;2.72;;;;;;;-8.36;61.02;100915.23;1697613;83;21024;-67
2021/12/22 07:57:42;;;;;;;3.37;2.20;;;;;;;-8.33;61.72;100919.45;1695395;83;21175;-72
2021/12/22 08:00:10;;;;;;;5.50;2.72;;;;;;;-8.71;61.32;100855.73;1694707;83;21062;-65
2021/12/22 08:02:39;;;;;;;3.87;2.63;;;;;;;-8.33;61.85;100918.15;1685252;83;21104;-65
2021/12/22 08:05:07;;;;;;;5.27;3.37;;;;;;;-8.31;61.98;100911.18;1673902;84;21067;-67
2021/12/22 08:07:34;;;;;;;5.57;2.90;;;;;;;-8.37;61.18;100912.70;1692740;83;22161;-65
2021/12/22 08:10:04;;;;;;;9.40;4.57;;;;;;;-8.32;61.57;100910.80;1667946;84;21525;-66
2021/12/22 08:12:30;;;;;;;7.23;3.83;;;;;;;-8.27;62.04;100917.50;1666441;82;21090;-66
2021/12/22 08:14:57;;;;;;;5.30;2.67;;;;;;;-8.14;61.88;100905.41;1692768;83;21091;-69
2021/12/22 08:17:25;;;;;;;3.25;2.92;;;;;;;-8.09;61.71;100911.27;1695625;83;21082;-65
2021/12/22 08:19:51;;;;;;;4.73;3.13;;;;;;;-8.06;62.02;100914.59;1693692;83;21051;-70
2021/12/22 08:22:18;;;;;;;5.70;2.77;;;;;;;-7.98;61.93;100913.02;1694106;83;21035;-68
2021/12/22 08:24:44;;;;;;;6.47;3.30;;;;;;;-7.88;61.62;100909.64;1691590;83;21024;-67
2021/12/22 08:27:12;;;;;;;4.93;3.07;;;;;;;-7.80;61.04;100910.19;1720376;82;20991;-65
2021/12/22 08:29:43;;;;;;;4.37;2.73;;;;;;;-7.76;60.88;100909.62;1723320;82;21096;-64
2021/12/22 08:32:11;;;;;;;3.30;2.70;;;;;;;-7.69;60.93;100913.22;1715722;82;21141;-66
2021/12/22 08:34:40;;;;;;;4.93;2.70;;;;;;;-7.67;60.84;100911.41;1665602;83;21030;-67
2021/12/22 08:39:55;;;;;;;5.20;2.43;;;;;;;-7.52;60.17;100906.11;1641835;86;21105;-66
2021/12/22 08:42:22;;;;;;;3.67;2.67;;;;;;;-7.44;60.29;100914.87;1627710;86;21143;-68
2021/12/22 08:44:49;;;;;;;4.03;2.43;;;;;;;-7.40;60.01;100916.47;1644138;86;21030;-66
2021/12/22 08:47:17;;;;;;;4.57;2.83;;;;;;;-7.39;59.92;100906.48;1633834;86;21087;-67
2021/12/22 08:49:45;;;;;;;5.63;3.13;;;;;;;-7.37;59.84;100913.73;1659577;85;21070;-69
2021/12/22 08:52:12;;;;;;;4.07;3.20;;;;;;;-7.45;59.22;100914.04;1663806;85;21106;-66
2021/12/22 08:54:38;;;;;;;3.40;3.10;;;;;;;-7.55;60.22;100911.85;1662944;85;21010;-67
2021/12/22 08:57:06;;;;;;;3.92;3.25;;;;;;;-7.54;60.06;100901.91;1667293;85;21103;-66
2021/12/22 08:59:32;;;;;;;3.33;1.97;;;;;;;-7.52;59.44;100907.41;1668338;85;21087;-65
2021/12/22 09:01:58;;;;;;;5.28;2.62;;;;;;;-7.49;58.83;100916.82;1666981;85;21574;-66
2021/12/22 09:04:24;;;;;;;3.67;2.85;;;;;;;-7.51;58.84;100924.64;1668574;85;21051;-66
2021/12/22 09:06:52;;;;;;;2.42;2.22;;;;;;;-7.49;58.55;100914.23;1667700;85;21107;-67
2021/12/22 09:09:21;;;;;;;3.53;2.07;;;;;;;-7.50;58.92;100908.64;1669791;85;21024;-66
2021/12/22 09:11:49;;;;;;;3.40;2.97;;;;;;;-7.44;58.90;100917.47;1677157;85;21042;-67
2021/12/22 09:14:17;;;;;;;3.07;2.30;;;;;;;-7.42;58.18;100914.82;1641925;86;21053;-65
2021/12/22 09:16:45;;;;;;;3.80;3.47;;;;;;;-7.46;57.41;100911.08;1690585;85;21539;-66
2021/12/22 09:19:11;;;;;;;2.33;2.12;;;;;;;-7.50;57.12;100916.41;1680761;85;21026;-68
2021/12/22 09:21:40;;;;;;;3.25;2.72;;;;;;;-7.60;57.13;100917.68;1667470;83;21171;-69
2021/12/22 09:24:07;;;;;;;2.77;2.40;;;;;;;-7.63;57.65;100918.62;1692956;84;21050;-67
2021/12/22 09:26:35;;;;;;;3.60;2.60;;;;;;;-7.59;57.96;100911.58;1707682;84;21073;-70
2021/12/22 09:29:03;;;;;;;4.47;2.97;;;;;;;-7.52;57.68;100910.45;1693169;82;21034;-71
2021/12/22 09:31:30;;;;;;;4.03;2.37;;;;;;;-7.50;58.16;100912.53;1648771;85;21038;-68
2021/12/22 09:33:57;;;;;;;5.50;2.50;;;;;;;-7.49;57.97;100897.40;1679345;83;21184;-69
2021/12/22 09:36:24;;;;;;;2.57;2.13;;;;;;;-7.50;57.40;100900.88;1697414;83;21002;-67
2021/12/22 09:38:50;;;;;;;3.25;2.70;;;;;;;-7.52;57.46;100906.56;1697510;83;21034;-69
2021/12/22 09:41:17;;;;;;;4.47;2.65;;;;;;;-7.54;57.18;100896.27;1699292;83;21065;-69
2021/12/22 09:43:43;;;;;;;2.52;2.12;;;;;;;-7.55;56.98;100902.36;1695566;83;21035;-69
2021/12/22 09:46:14;;;;;;;1.67;1.57;;;;;;;-7.52;56.68;100900.93;1698986;83;21085;-67
2021/12/22 09:53:39;;;;;;;4.10;2.10;;;;;;;-7.50;56.84;100891.35;1701052;83;21051;-68
2021/12/22 09:56:07;;;;;;;3.03;2.70;;;;;;;-7.49;56.83;100889.17;1682487;83;21069;-67
2021/12/22 09:58:38;;;;;;;6.00;3.40;;;;;;;-7.47;56.41;100886.53;1668512;84;21043;-66
2021/12/22 10:01:05;;;;;;;3.97;3.43;;;;;;;-7.51;57.35;100881.91;1645161;84;21106;-67
2021/12/22 10:03:32;;;;;;;3.83;2.95;;;;;;;-7.47;57.13;100886.53;1668922;84;21099;-69
2021/12/22 10:05:58;;;;;;;;;;;;;;;-7.38;57.23;100887.89;1670856;84;21067;-68
2021/12/22 10:08:27;;;;;;;7.63;4.03;;;;;;;-7.28;57.01;100883.59;1669869;84;20519;-69
2021/12/22 10:11:09;;;;;;;6.53;4.90;;;;;;;-7.20;57.05;100871.63;1664473;84;21554;-69
2021/12/22 10:13:43;;;;;;;4.17;3.13;;;;;;;-7.20;56.36;100881.16;1689172;83;21051;-69
2021/12/22 10:16:21;;;;;;;4.50;3.37;;;;;;;-7.20;56.46;100879.41;1696079;84;21066;-69
2021/12/22 10:19:08;;;;;;;4.17;3.40;;;;;;;-7.21;57.24;100880.32;1697276;84;21018;-68
2021/12/22 10:21:56;;;;;;;4.30;3.27;;;;;;;-7.12;56.98;100883.84;1687181;84;21098;-68
2021/12/22 10:24:44;;;;;;;5.65;3.27;;;;;;;-7.10;56.63;100883.33;1695987;83;20971;-68
2021/12/22 10:27:20;;;;;;;7.70;3.17;;;;;;;-7.15;56.59;100878.77;1689785;84;21095;-70
2021/12/22 10:29:46;;;;;;;3.77;2.83;;;;;;;-7.16;56.76;100881.42;1689903;83;21607;-67
2021/12/22 10:32:15;;;;;;;;;;;;;;;-7.24;57.41;100882.56;1692118;83;21006;-68
2021/12/22 10:35:01;;;;;;;6.33;3.13;;;;;;;-7.28;56.76;100878.41;1696791;84;20270;-69
2021/12/22 10:37:40;;;;;;;6.10;3.83;;;;;;;-7.31;56.63;100880.28;1698162;84;21061;-69
2021/12/22 10:40:30;;;;;;;4.20;3.80;;;;;;;-7.38;56.63;100891.35;1669944;84;21024;-69
2021/12/22 10:43:00;;;;;;;5.00;2.73;;;;;;;-7.36;56.72;100886.12;1670720;84;21067;-67
2021/12/22 10:45:30;;;;;;;4.87;3.60;;;;;;;-7.30;56.98;100874.21;1695760;84;21046;-70
2021/12/22 10:50:58;;;;;;;5.47;3.53;;;;;;;-7.17;57.09;100883.17;1684721;84;21025;-68
2021/12/22 10:53:26;;;;;;;8.70;4.58;;;;;;;-7.16;56.97;100890.48;1680509;84;21021;-69
2021/12/22 10:55:56;;;;;;;8.33;4.37;;;;;;;-7.12;56.70;100889.03;1687381;83;21471;-68
2021/12/22 10:58:30;;;;;;;7.90;3.93;;;;;;;-7.06;57.00;100889.23;1690806;84;21042;-72
2021/12/22 11:01:08;;;;;;;9.37;5.03;;;;;;;-6.96;56.78;100899.59;1692680;82;21002;-69
2021/12/22 11:03:46;;;;;;;4.43;3.17;;;;;;;-6.86;56.61;100893.58;1694101;84;21021;-70
2021/12/22 11:06:27;;;;;;;6.67;3.37;;;;;;;-6.85;56.69;100888.34;1696009;83;21536;-70
2021/12/22 11:09:02;;;;;;;5.33;3.70;;;;;;;-6.85;56.69;100888.34;1694010;84;21449;-68
2021/12/22 11:11:38;;;;;;;4.73;3.43;;;;;;;-6.87;56.16;100884.97;1697202;82;21659;-69
2021/12/22 11:14:12;;;;;;;5.27;3.27;;;;;;;-6.87;56.32;100887.56;1691463;83;20993;-69
2021/12/22 11:17:21;;;;;;;5.17;3.87;;;;;;;-6.83;56.22;100874.48;1695302;83;21061;-69
2021/12/22 11:19:57;;;;;;;7.35;3.40;;;;;;;-6.79;56.38;100869.55;1625704;86;21003;-69
2021/12/22 11:22:40;;;;;;;6.03;4.03;;;;;;;-6.75;56.45;100871.11;1661551;85;21053;-68
2021/12/22 11:25:12;;;;;;;6.97;4.07;;;;;;;-6.67;56.63;100872.91;1689599;83;20967;-69
2021/12/22 11:27:36;;;;;;;11.23;5.00;;;;;;;-6.60;56.46;100870.45;1685823;83;21033;-70
2021/12/22 11:32:10;;;;;;;7.40;3.53;;;;;;;-6.43;56.82;100868.43;1800782;79;22276;-69
2021/12/22 11:34:38;;;;;;;7.87;3.87;;;;;;;-6.45;56.15;100870.25;1745922;80;20999;-70
2021/12/22 11:37:09;;;;;;;5.03;2.90;;;;;;;-6.44;55.90;100871.09;1720725;81;21025;-69
2021/12/22 11:39:38;;;;;;;5.73;3.97;;;;;;;-6.54;55.59;100874.07;1736234;81;21037;-69
2021/12/22 11:42:08;;;;;;;6.37;4.37;;;;;;;-6.58;55.57;100880.30;1726964;81;21071;-68
2021/12/22 11:44:38;;;;;;;6.03;4.00;;;;;;;-6.63;55.75;100869.28;1736408;81;21585;-70
2021/12/22 11:47:11;;;;;;;6.23;4.17;;;;;;;-6.70;55.88;100871.30;1728838;81;21024;-70
2021/12/22 11:49:55;;;;;;;6.00;3.53;;;;;;;-6.75;56.27;100882.31;1735989;81;21000;-70
2021/12/22 11:52:38;;;;;;;5.53;3.63;;;;;;;-6.79;56.27;100874.73;1732246;81;21385;-70
2021/12/22 11:55:20;;;;;;;8.37;4.73;;;;;;;-6.81;56.37;100878.69;1734703;81;21127;-70
2021/12/22 11:57:51;;;;;;;8.73;6.07;;;;;;;-6.82;56.57;100874.86;1731237;81;21049;-69
2021/12/22 12:00:31;;;;;;;5.10;3.20;;;;;;;-6.81;57.01;100880.45;1726561;81;21049;-69
2021/12/22 12:03:21;;;;;;;3.17;2.67;;;;;;;-6.90;57.02;100878.61;1726269;81;21052;-69
2021/12/22 12:06:17;;;;;;;4.20;3.07;;;;;;;-6.93;57.37;100891.71;1727287;81;21499;-70